createdAt,value
2022-10-20T00:01:11.567Z,0.75
2022-10-20T00:05:09.253Z,0.01
2022-10-20T00:09:09.798Z,0.01
2022-10-20T00:13:09.696Z,0.01
2022-10-20T00:17:09.548Z,0.01
2022-10-20T00:21:09.679Z,0.01
2022-10-20T00:25:08.887Z,0.01
2022-10-20T00:29:09.651Z,0.01
2022-10-20T00:33:09.127Z,0.75
2022-10-20T00:37:14.043Z,0.74
2022-10-20T00:41:09.156Z,0.01
2022-10-20T00:45:09.630Z,0.74
2022-10-20T00:49:08.985Z,0.74
2022-10-20T00:53:10.228Z,0.01
2022-10-20T00:57:09.801Z,0.74
2022-10-20T01:01:14.736Z,0.01
2022-10-20T01:05:09.735Z,0.01
2022-10-20T01:09:09.266Z,0.01
2022-10-20T01:13:08.849Z,0.01
2022-10-20T01:17:09.301Z,0.01
2022-10-20T01:21:09.357Z,0.01
2022-10-20T01:25:08.836Z,0.01
2022-10-20T01:29:08.766Z,0.01
2022-10-20T01:33:09.664Z,0.01
2022-10-20T01:37:09.232Z,0.01
2022-10-20T01:41:08.999Z,0.01
2022-10-20T01:45:09.182Z,0.01
2022-10-20T01:49:09.053Z,0.01
2022-10-20T01:53:09.554Z,0.01
2022-10-20T01:57:09.223Z,0.01
2022-10-20T02:01:12.627Z,0.01
2022-10-20T02:05:09.204Z,0.01
2022-10-20T02:09:09.631Z,0.04
2022-10-20T02:13:09.720Z,0.04
2022-10-20T02:17:09.118Z,0.04
2022-10-20T02:21:08.856Z,0.04
2022-10-20T02:25:09.071Z,0.04
2022-10-20T02:29:08.875Z,0.04
2022-10-20T02:33:09.778Z,0.04
2022-10-20T02:37:09.703Z,0.04
2022-10-20T02:41:09.738Z,0.04
2022-10-20T02:45:09.070Z,0.04
2022-10-20T02:49:13.722Z,0.04
2022-10-20T02:53:08.911Z,0.04
2022-10-20T02:57:12.604Z,0.04
2022-10-20T03:01:12.092Z,0.04
2022-10-20T03:05:09.221Z,0.04
2022-10-20T03:09:09.636Z,0.04
2022-10-20T03:13:11.720Z,0.04
2022-10-20T03:17:09.157Z,0.07
2022-10-20T03:21:09.650Z,0.07
2022-10-20T03:25:09.076Z,0.07
2022-10-20T03:29:09.463Z,0.07
2022-10-20T03:33:09.300Z,0.07
2022-10-20T03:37:09.420Z,0.07
2022-10-20T03:41:09.432Z,0.07
2022-10-20T03:45:09.114Z,0.07
2022-10-20T03:49:09.516Z,0.07
2022-10-20T03:53:10.292Z,0.07
2022-10-20T03:57:08.980Z,0.07
2022-10-20T04:01:10.434Z,0.07
2022-10-20T04:05:09.225Z,0.07
2022-10-20T04:09:09.972Z,0.07
2022-10-20T04:13:09.690Z,0.07
2022-10-20T04:17:09.747Z,0.07
2022-10-20T04:21:13.112Z,0.07
2022-10-20T04:25:08.698Z,0.07
2022-10-20T04:29:09.621Z,0.07
2022-10-20T04:33:09.218Z,0.07
2022-10-20T04:37:09.005Z,0.07
2022-10-20T04:41:14.540Z,0.07
2022-10-20T04:45:09.511Z,0.07
2022-10-20T04:49:09.039Z,0.07
2022-10-20T04:53:08.994Z,0.07
2022-10-20T04:57:09.236Z,0.07
2022-10-20T05:01:11.553Z,0.07
2022-10-20T05:05:09.023Z,0.07
2022-10-20T05:09:10.413Z,0.07
2022-10-20T05:13:11.240Z,0.07
2022-10-20T05:17:10.074Z,0.07
2022-10-20T05:21:32.176Z,0.07
2022-10-20T05:25:46.623Z,0.07
2022-10-20T05:29:08.926Z,0.07
2022-10-20T05:33:09.816Z,0.07
2022-10-20T05:37:13.176Z,0.07
2022-10-20T05:41:08.898Z,0.07
2022-10-20T05:45:09.008Z,0.07
2022-10-20T05:49:15.989Z,0.07
2022-10-20T05:53:09.774Z,0.07
2022-10-20T05:57:09.253Z,0.07
2022-10-20T06:01:11.839Z,0.07
2022-10-20T06:05:09.707Z,0.07
2022-10-20T06:09:09.521Z,0.07
2022-10-20T06:13:09.875Z,0.07
2022-10-20T06:17:08.887Z,0.07
2022-10-20T06:21:09.266Z,0.07
2022-10-20T06:25:09.133Z,0.07
2022-10-20T06:29:15.434Z,0.07
2022-10-20T06:33:11.194Z,0.07
2022-10-20T06:37:09.493Z,0.07
2022-10-20T06:41:09.634Z,0.07
2022-10-20T06:45:09.331Z,0.07
2022-10-20T06:49:10.402Z,0.07
2022-10-20T06:53:09.452Z,0.07
2022-10-20T06:57:09.467Z,0.07
2022-10-20T07:01:11.772Z,0.07
2022-10-20T07:05:09.738Z,0.07
2022-10-20T07:09:09.583Z,0.07
2022-10-20T07:13:09.629Z,0.07
2022-10-20T07:17:09.719Z,0.07
2022-10-20T07:21:09.042Z,0.07
2022-10-20T07:25:09.533Z,0.07
2022-10-20T07:29:08.862Z,0.07
2022-10-20T07:33:10.027Z,0.07
2022-10-20T07:37:10.132Z,0.07
2022-10-20T07:41:12.722Z,0.07
2022-10-20T07:45:08.864Z,0.07
2022-10-20T07:49:44.870Z,0.07
2022-10-20T07:53:09.588Z,0.07
2022-10-20T07:57:08.929Z,0.07
2022-10-20T08:01:12.180Z,0.07
2022-10-20T08:05:09.729Z,0.07
2022-10-20T08:09:09.155Z,0.07
2022-10-20T08:13:09.465Z,0.07
2022-10-20T08:17:14.466Z,0.07
2022-10-20T08:21:12.548Z,0.07
2022-10-20T08:25:09.480Z,0.19
2022-10-20T08:29:12.086Z,0.05
2022-10-20T08:33:09.619Z,4.12
2022-10-20T08:37:08.759Z,0.02
2022-10-20T08:41:09.124Z,1.69
2022-10-20T08:45:09.753Z,1.65
2022-10-20T08:49:08.726Z,0.01
2022-10-20T08:53:09.130Z,1.25
2022-10-20T08:57:09.027Z,1.23
2022-10-20T09:01:17.785Z,0.01
2022-10-20T09:05:10.614Z,1.06
2022-10-20T09:09:09.684Z,0.01
2022-10-20T09:13:16.051Z,0.01
2022-10-20T09:17:45.839Z,0.01
2022-10-20T09:21:09.116Z,0.01
2022-10-20T09:25:08.770Z,0.01
2022-10-20T09:29:37.434Z,0.01
2022-10-20T09:33:44.397Z,0.01
2022-10-20T09:37:09.511Z,0.01
2022-10-20T09:41:09.088Z,0.01
2022-10-20T09:45:09.152Z,0.01
2022-10-20T09:49:09.521Z,0.01
2022-10-20T09:53:10.630Z,0.01
2022-10-20T09:57:09.661Z,0.01
2022-10-20T10:01:34.847Z,0.01
2022-10-20T10:05:09.276Z,0.01
2022-10-20T10:09:09.894Z,0.01
2022-10-20T10:13:10.213Z,0.06
2022-10-20T10:17:09.032Z,0.06
2022-10-20T10:21:09.687Z,2.5
2022-10-20T10:25:09.479Z,2.5
2022-10-20T10:29:08.933Z,2.5
2022-10-20T10:33:09.746Z,2.5
2022-10-20T10:37:09.078Z,2.5
2022-10-20T10:41:09.502Z,2.5
2022-10-20T10:45:09.523Z,2.5
2022-10-20T10:49:09.642Z,2.5
2022-10-20T10:53:09.580Z,2.5
2022-10-20T10:57:11.855Z,2.5
2022-10-20T11:01:14.731Z,2.5
2022-10-20T11:05:09.793Z,2.5
2022-10-20T11:09:09.654Z,2.5
2022-10-20T11:13:09.640Z,2.5
2022-10-20T11:17:09.627Z,2.5
2022-10-20T11:21:09.217Z,2.5
2022-10-20T11:25:09.434Z,0.08
2022-10-20T11:29:09.025Z,0.08
2022-10-20T11:33:09.980Z,0.03
2022-10-20T11:37:09.732Z,1.74
2022-10-20T11:41:16.012Z,1.74
2022-10-20T11:45:09.445Z,0.01
2022-10-20T11:49:15.268Z,1.21
2022-10-20T11:53:09.481Z,1.21
2022-10-20T11:57:09.329Z,0.01
2022-10-20T12:01:11.816Z,0.01
2022-10-20T12:05:09.531Z,0.01
2022-10-20T12:09:36.714Z,0.01
2022-10-20T12:13:09.869Z,0.01
2022-10-20T12:17:09.720Z,0.01
2022-10-20T12:21:09.729Z,0.01
2022-10-20T12:25:10.058Z,0.01
2022-10-20T12:29:09.783Z,0.01
2022-10-20T12:33:10.217Z,0.01
2022-10-20T12:37:09.234Z,0.01
2022-10-20T12:41:08.860Z,0.01
2022-10-20T12:45:09.134Z,0.01
2022-10-20T12:49:11.824Z,0.01
2022-10-20T12:53:09.060Z,0.01
2022-10-20T12:57:09.300Z,0.99
2022-10-20T13:01:12.091Z,0.97
2022-10-20T13:05:09.753Z,0.97
2022-10-20T13:09:09.127Z,0.01
2022-10-20T13:13:09.413Z,0.01
2022-10-20T13:17:08.857Z,0.01
2022-10-20T13:21:09.723Z,0.01
2022-10-20T13:25:19.301Z,0.01
2022-10-20T13:29:09.622Z,0.01
2022-10-20T13:34:15.476Z,0.88
2022-10-20T13:37:09.250Z,0.01
2022-10-20T13:41:13.556Z,0.01
2022-10-20T13:45:16.666Z,0.87
2022-10-20T13:49:09.265Z,0.01
2022-10-20T13:53:10.129Z,0.01
2022-10-20T13:57:09.952Z,0.01
2022-10-20T14:01:11.629Z,0.01
2022-10-20T14:05:09.384Z,0.01
2022-10-20T14:09:19.988Z,0.01
2022-10-20T14:13:10.052Z,0.01
2022-10-20T14:17:09.251Z,0.01
2022-10-20T14:21:09.547Z,0.01
2022-10-20T14:25:09.635Z,0.01
2022-10-20T14:29:14.904Z,0.01
2022-10-20T14:33:08.902Z,0.01
2022-10-20T14:37:09.165Z,0.01
2022-10-20T14:41:09.404Z,0.01
2022-10-20T14:45:27.909Z,0.01
2022-10-20T14:49:09.045Z,0.8
2022-10-20T14:53:16.770Z,0.8
2022-10-20T14:57:09.410Z,0.79
2022-10-20T15:01:13.725Z,0.79
2022-10-20T15:05:10.309Z,0.01
2022-10-20T15:09:17.912Z,0.01
2022-10-20T15:17:09.528Z,0.01
2022-10-20T15:21:09.525Z,0.78
2022-10-20T15:25:08.881Z,0.78
2022-10-20T15:29:09.122Z,0.01
2022-10-20T15:33:09.116Z,0.01
2022-10-20T15:37:15.789Z,0.01
2022-10-20T15:41:09.568Z,0.01
2022-10-20T15:45:09.736Z,0.01
2022-10-20T15:49:09.183Z,0.01
2022-10-20T15:53:10.072Z,0.01
2022-10-20T15:57:09.270Z,0.01
2022-10-20T16:01:16.617Z,0.01
2022-10-20T16:05:09.454Z,0.01
2022-10-20T16:09:11.947Z,0.01
2022-10-20T16:13:10.183Z,0.01
2022-10-20T16:17:10.081Z,0.76
2022-10-20T16:21:08.825Z,0.01
2022-10-20T16:25:09.120Z,0.76
2022-10-20T16:29:09.540Z,0.76
2022-10-20T16:33:09.404Z,0.76
2022-10-20T16:37:09.773Z,0.76
2022-10-20T16:41:09.413Z,0.76
2022-10-20T16:45:09.297Z,0.76
2022-10-20T16:49:11.756Z,0.76
2022-10-20T16:53:09.516Z,0.76
2022-10-20T16:57:14.573Z,0.76
2022-10-20T17:01:12.712Z,0.76
2022-10-20T17:05:09.740Z,0.76
2022-10-20T17:09:09.308Z,0.76
2022-10-20T17:13:09.350Z,0.76
2022-10-20T17:17:13.786Z,0.76
2022-10-20T17:21:08.828Z,0.76
2022-10-20T17:25:09.212Z,0.76
2022-10-20T17:29:08.789Z,0.04
2022-10-20T17:33:14.416Z,0.04
2022-10-20T17:37:08.717Z,2.04
2022-10-20T17:41:09.427Z,0.01
2022-10-20T17:45:08.757Z,0.01
2022-10-20T17:49:08.781Z,0.01
2022-10-20T17:53:10.061Z,0.01
2022-10-20T17:57:09.841Z,0.01
2022-10-20T18:01:52.204Z,0.01
2022-10-20T18:05:09.748Z,0.01
2022-10-20T18:09:10.205Z,0.01
2022-10-20T18:13:09.571Z,0.01
2022-10-20T18:17:09.240Z,0.01
2022-10-20T18:21:09.480Z,0.01
2022-10-20T18:25:11.558Z,0.01
2022-10-20T18:29:11.136Z,0.01
2022-10-20T18:33:09.625Z,0.01
2022-10-20T18:37:14.266Z,0.01
2022-10-20T18:41:09.709Z,0.01
2022-10-20T18:45:09.699Z,0.01
2022-10-20T18:49:09.314Z,0.05
2022-10-20T18:53:09.572Z,0.05
2022-10-20T18:57:09.638Z,0.05
2022-10-20T19:01:12.039Z,0.05
2022-10-20T19:05:09.742Z,0.05
2022-10-20T19:09:09.810Z,0.05
2022-10-20T19:13:13.242Z,0.05
2022-10-20T19:17:09.147Z,0.05
2022-10-20T19:21:09.621Z,0.05
2022-10-20T19:25:09.338Z,0.05
2022-10-20T19:29:10.306Z,0.05
2022-10-20T19:33:15.181Z,0.05
2022-10-20T19:37:08.990Z,0.05
2022-10-20T19:41:13.457Z,0.05
2022-10-20T19:45:09.600Z,0.05
2022-10-20T19:49:09.766Z,0.05
2022-10-20T19:53:10.256Z,0.05
2022-10-20T19:57:09.069Z,0.05
2022-10-20T20:01:09.422Z,0.05
2022-10-20T20:05:09.258Z,0.05
2022-10-20T20:09:09.306Z,0.05
2022-10-20T20:13:09.402Z,0.05
2022-10-20T20:17:16.472Z,0.05
2022-10-20T20:21:09.309Z,0.05
2022-10-20T20:25:09.675Z,0.05
2022-10-20T20:29:08.853Z,0.05
2022-10-20T20:33:14.529Z,0.05
2022-10-20T20:37:09.386Z,0.05
2022-10-20T20:41:09.497Z,0.05
2022-10-20T20:45:15.711Z,0.05
2022-10-20T20:49:08.906Z,0.05
2022-10-20T20:53:09.048Z,0.05
2022-10-20T20:57:12.015Z,0.05
2022-10-20T21:01:11.936Z,0.05
2022-10-20T21:05:14.777Z,0.05
2022-10-20T21:09:10.111Z,0.05
2022-10-20T21:13:09.469Z,0.05
2022-10-20T21:17:08.779Z,0.05
2022-10-20T21:25:09.122Z,0.05
2022-10-20T21:29:08.983Z,0.05
2022-10-20T21:33:09.465Z,0.05
2022-10-20T21:37:09.739Z,0.05
2022-10-20T21:41:09.300Z,0.05
2022-10-20T21:45:08.712Z,0.05
2022-10-20T21:49:09.917Z,0.05
2022-10-20T21:53:10.059Z,0.05
2022-10-20T21:57:09.386Z,0.05
2022-10-20T22:01:20.748Z,0.05
2022-10-20T22:05:09.161Z,0.05
2022-10-20T22:09:09.282Z,0.05
2022-10-20T22:13:10.309Z,0.05
2022-10-20T22:17:09.665Z,0.05
2022-10-20T22:21:11.254Z,0.05
2022-10-20T22:25:09.633Z,0.05
2022-10-20T22:29:09.151Z,0.05
2022-10-20T22:33:09.890Z,0.05
2022-10-20T22:37:08.946Z,0.05
2022-10-20T22:41:09.252Z,0.05
2022-10-20T22:45:09.051Z,0.05
2022-10-20T22:49:09.460Z,0.05
2022-10-20T22:53:09.535Z,0.05
2022-10-20T22:57:09.261Z,0.05
2022-10-20T23:01:12.135Z,0.05
2022-10-20T23:05:09.819Z,0.05
2022-10-20T23:09:09.381Z,0.05
2022-10-20T23:13:10.248Z,0.05
2022-10-20T23:17:09.821Z,0.05
2022-10-20T23:21:09.755Z,0.05
2022-10-20T23:25:09.091Z,0.05
2022-10-20T23:29:09.500Z,0.05
2022-10-20T23:33:09.685Z,0.05
2022-10-20T23:37:13.104Z,0.05
2022-10-20T23:41:09.773Z,0.05
2022-10-20T23:45:09.018Z,0.05
2022-10-20T23:49:08.966Z,0.05
2022-10-20T23:53:09.697Z,0.05
2022-10-20T23:57:09.185Z,0.05
